sensor_id;sensor_type;location;lat;lon;timestamp;P1;durP1;ratioP1;P2;durP2;ratioP2
9924;SDS011;5001;51.674;7.868;2023-04-26T00:00:53;12.57;;;4.10;;
9924;SDS011;5001;51.674;7.868;2023-04-26T00:03:20;9.57;;;3.87;;
9924;SDS011;5001;51.674;7.868;2023-04-26T00:05:48;9.53;;;3.90;;
9924;SDS011;5001;51.674;7.868;2023-04-26T00:08:16;8.83;;;3.53;;
9924;SDS011;5001;51.674;7.868;2023-04-26T00:10:43;6.97;;;3.23;;
9924;SDS011;5001;51.674;7.868;2023-04-26T00:13:10;10.40;;;3.77;;
9924;SDS011;5001;51.674;7.868;2023-04-26T00:15:37;8.23;;;4.33;;
9924;SDS011;5001;51.674;7.868;2023-04-26T00:18:04;10.73;;;3.87;;
9924;SDS011;5001;51.674;7.868;2023-04-26T00:20:31;11.07;;;3.67;;
9924;SDS011;5001;51.674;7.868;2023-04-26T00:22:58;6.37;;;3.57;;
9924;SDS011;5001;51.674;7.868;2023-04-26T00:25:25;6.93;;;3.33;;
9924;SDS011;5001;51.674;7.868;2023-04-26T00:27:52;9.70;;;3.53;;
9924;SDS011;5001;51.674;7.868;2023-04-26T00:30:19;5.97;;;3.50;;
9924;SDS011;5001;51.674;7.868;2023-04-26T00:32:46;11.33;;;3.83;;
9924;SDS011;5001;51.674;7.868;2023-04-26T00:35:13;7.20;;;3.30;;
9924;SDS011;5001;51.674;7.868;2023-04-26T00:37:42;7.87;;;3.43;;
9924;SDS011;5001;51.674;7.868;2023-04-26T00:40:09;11.03;;;3.47;;
9924;SDS011;5001;51.674;7.868;2023-04-26T00:42:37;6.43;;;3.47;;
9924;SDS011;5001;51.674;7.868;2023-04-26T00:45:05;15.20;;;9.10;;
9924;SDS011;5001;51.674;7.868;2023-04-26T00:47:33;14.50;;;5.20;;
9924;SDS011;5001;51.674;7.868;2023-04-26T00:50:00;5.90;;;3.90;;
9924;SDS011;5001;51.674;7.868;2023-04-26T00:52:29;10.63;;;4.63;;
9924;SDS011;5001;51.674;7.868;2023-04-26T00:54:57;8.77;;;4.97;;
9924;SDS011;5001;51.674;7.868;2023-04-26T00:57:24;6.87;;;4.20;;
9924;SDS011;5001;51.674;7.868;2023-04-26T00:59:51;11.40;;;4.70;;
9924;SDS011;5001;51.674;7.868;2023-04-26T01:02:18;13.50;;;5.70;;
9924;SDS011;5001;51.674;7.868;2023-04-26T01:04:46;9.97;;;4.83;;
9924;SDS011;5001;51.674;7.868;2023-04-26T01:07:15;11.17;;;4.53;;
9924;SDS011;5001;51.674;7.868;2023-04-26T01:09:42;9.50;;;4.30;;
9924;SDS011;5001;51.674;7.868;2023-04-26T01:12:10;7.53;;;4.60;;
9924;SDS011;5001;51.674;7.868;2023-04-26T01:14:38;14.70;;;4.93;;
9924;SDS011;5001;51.674;7.868;2023-04-26T01:17:06;13.70;;;5.33;;
9924;SDS011;5001;51.674;7.868;2023-04-26T01:19:33;9.60;;;4.20;;
9924;SDS011;5001;51.674;7.868;2023-04-26T01:22:02;10.80;;;4.70;;
9924;SDS011;5001;51.674;7.868;2023-04-26T01:24:29;8.80;;;4.70;;
9924;SDS011;5001;51.674;7.868;2023-04-26T01:26:58;7.03;;;4.30;;
9924;SDS011;5001;51.674;7.868;2023-04-26T01:29:25;12.17;;;5.13;;
9924;SDS011;5001;51.674;7.868;2023-04-26T01:31:52;7.57;;;4.77;;
9924;SDS011;5001;51.674;7.868;2023-04-26T01:34:19;9.10;;;4.10;;
9924;SDS011;5001;51.674;7.868;2023-04-26T01:36:47;11.43;;;4.43;;
9924;SDS011;5001;51.674;7.868;2023-04-26T01:39:14;13.03;;;4.50;;
9924;SDS011;5001;51.674;7.868;2023-04-26T01:41:41;11.53;;;5.23;;
9924;SDS011;5001;51.674;7.868;2023-04-26T01:44:08;11.33;;;5.77;;
9924;SDS011;5001;51.674;7.868;2023-04-26T01:46:35;14.57;;;4.47;;
9924;SDS011;5001;51.674;7.868;2023-04-26T01:49:02;12.10;;;4.20;;
9924;SDS011;5001;51.674;7.868;2023-04-26T01:51:30;11.67;;;5.00;;
9924;SDS011;5001;51.674;7.868;2023-04-26T01:53:58;12.97;;;4.77;;
9924;SDS011;5001;51.674;7.868;2023-04-26T01:56:25;7.43;;;4.70;;
9924;SDS011;5001;51.674;7.868;2023-04-26T01:58:52;11.83;;;5.00;;
9924;SDS011;5001;51.674;7.868;2023-04-26T02:01:21;7.47;;;4.67;;
9924;SDS011;5001;51.674;7.868;2023-04-26T02:03:49;13.53;;;4.93;;
9924;SDS011;5001;51.674;7.868;2023-04-26T02:06:17;10.53;;;5.47;;
9924;SDS011;5001;51.674;7.868;2023-04-26T02:08:44;13.83;;;4.73;;
9924;SDS011;5001;51.674;7.868;2023-04-26T02:11:13;11.70;;;5.37;;
9924;SDS011;5001;51.674;7.868;2023-04-26T02:13:39;11.20;;;4.73;;
9924;SDS011;5001;51.674;7.868;2023-04-26T02:16:06;14.67;;;5.33;;
9924;SDS011;5001;51.674;7.868;2023-04-26T02:18:34;11.13;;;5.60;;
9924;SDS011;5001;51.674;7.868;2023-04-26T02:21:01;11.13;;;5.37;;
9924;SDS011;5001;51.674;7.868;2023-04-26T02:23:29;11.50;;;5.33;;
9924;SDS011;5001;51.674;7.868;2023-04-26T02:25:56;13.30;;;5.73;;
9924;SDS011;5001;51.674;7.868;2023-04-26T02:28:23;11.30;;;6.10;;
9924;SDS011;5001;51.674;7.868;2023-04-26T02:30:53;13.83;;;5.70;;
9924;SDS011;5001;51.674;7.868;2023-04-26T02:33:22;8.93;;;5.70;;
9924;SDS011;5001;51.674;7.868;2023-04-26T02:35:49;11.93;;;5.47;;
9924;SDS011;5001;51.674;7.868;2023-04-26T02:38:17;9.23;;;5.30;;
9924;SDS011;5001;51.674;7.868;2023-04-26T02:40:44;13.10;;;5.67;;
9924;SDS011;5001;51.674;7.868;2023-04-26T02:43:12;9.97;;;5.57;;
9924;SDS011;5001;51.674;7.868;2023-04-26T02:45:42;14.20;;;6.53;;
9924;SDS011;5001;51.674;7.868;2023-04-26T02:48:11;11.23;;;6.50;;
9924;SDS011;5001;51.674;7.868;2023-04-26T02:50:38;13.07;;;6.33;;
9924;SDS011;5001;51.674;7.868;2023-04-26T02:53:06;13.37;;;6.30;;
9924;SDS011;5001;51.674;7.868;2023-04-26T02:55:32;14.33;;;6.30;;
9924;SDS011;5001;51.674;7.868;2023-04-26T02:57:59;15.13;;;6.60;;
9924;SDS011;5001;51.674;7.868;2023-04-26T03:00:26;14.00;;;6.87;;
9924;SDS011;5001;51.674;7.868;2023-04-26T03:02:54;15.13;;;7.53;;
9924;SDS011;5001;51.674;7.868;2023-04-26T03:05:22;23.60;;;10.80;;
9924;SDS011;5001;51.674;7.868;2023-04-26T03:07:49;16.10;;;9.27;;
9924;SDS011;5001;51.674;7.868;2023-04-26T03:10:17;19.10;;;9.10;;
9924;SDS011;5001;51.674;7.868;2023-04-26T03:12:44;14.50;;;6.40;;
9924;SDS011;5001;51.674;7.868;2023-04-26T03:15:11;13.27;;;7.17;;
9924;SDS011;5001;51.674;7.868;2023-04-26T03:17:40;13.60;;;7.67;;
9924;SDS011;5001;51.674;7.868;2023-04-26T03:20:09;16.30;;;8.20;;
9924;SDS011;5001;51.674;7.868;2023-04-26T03:22:37;11.53;;;9.13;;
9924;SDS011;5001;51.674;7.868;2023-04-26T03:25:05;14.57;;;8.13;;
9924;SDS011;5001;51.674;7.868;2023-04-26T03:27:33;18.37;;;7.93;;
9924;SDS011;5001;51.674;7.868;2023-04-26T03:30:00;12.10;;;7.03;;
9924;SDS011;5001;51.674;7.868;2023-04-26T03:32:27;13.87;;;7.13;;
9924;SDS011;5001;51.674;7.868;2023-04-26T03:34:54;11.80;;;7.27;;
9924;SDS011;5001;51.674;7.868;2023-04-26T03:37:22;17.97;;;7.93;;
9924;SDS011;5001;51.674;7.868;2023-04-26T03:39:56;13.87;;;7.70;;
9924;SDS011;5001;51.674;7.868;2023-04-26T03:42:23;11.63;;;7.43;;
9924;SDS011;5001;51.674;7.868;2023-04-26T03:44:50;16.43;;;7.23;;
9924;SDS011;5001;51.674;7.868;2023-04-26T03:47:17;15.57;;;8.27;;
9924;SDS011;5001;51.674;7.868;2023-04-26T03:49:44;11.00;;;8.20;;
9924;SDS011;5001;51.674;7.868;2023-04-26T03:52:11;14.73;;;8.40;;
9924;SDS011;5001;51.674;7.868;2023-04-26T03:54:37;13.80;;;7.77;;
9924;SDS011;5001;51.674;7.868;2023-04-26T03:57:05;18.87;;;9.30;;
9924;SDS011;5001;51.674;7.868;2023-04-26T03:59:32;16.03;;;7.70;;
9924;SDS011;5001;51.674;7.868;2023-04-26T04:01:59;18.10;;;8.03;;
9924;SDS011;5001;51.674;7.868;2023-04-26T04:04:26;12.17;;;7.63;;
9924;SDS011;5001;51.674;7.868;2023-04-26T04:06:53;19.80;;;9.07;;
9924;SDS011;5001;51.674;7.868;2023-04-26T04:09:21;13.73;;;8.10;;
9924;SDS011;5001;51.674;7.868;2023-04-26T04:11:48;21.10;;;12.23;;
9924;SDS011;5001;51.674;7.868;2023-04-26T04:14:15;48.23;;;28.63;;
9924;SDS011;5001;51.674;7.868;2023-04-26T04:16:44;24.17;;;14.10;;
9924;SDS011;5001;51.674;7.868;2023-04-26T04:19:11;20.47;;;10.00;;
9924;SDS011;5001;51.674;7.868;2023-04-26T04:21:38;21.50;;;10.50;;
9924;SDS011;5001;51.674;7.868;2023-04-26T04:24:08;16.33;;;9.50;;
9924;SDS011;5001;51.674;7.868;2023-04-26T04:26:35;17.53;;;10.23;;
9924;SDS011;5001;51.674;7.868;2023-04-26T04:29:02;19.57;;;10.00;;
9924;SDS011;5001;51.674;7.868;2023-04-26T04:31:36;16.43;;;8.77;;
9924;SDS011;5001;51.674;7.868;2023-04-26T04:34:03;20.87;;;11.47;;
9924;SDS011;5001;51.674;7.868;2023-04-26T04:36:30;17.63;;;8.83;;
9924;SDS011;5001;51.674;7.868;2023-04-26T04:38:58;17.57;;;8.47;;
9924;SDS011;5001;51.674;7.868;2023-04-26T04:41:25;18.03;;;9.60;;
9924;SDS011;5001;51.674;7.868;2023-04-26T04:43:53;15.30;;;8.37;;
9924;SDS011;5001;51.674;7.868;2023-04-26T04:46:21;19.60;;;9.67;;
9924;SDS011;5001;51.674;7.868;2023-04-26T04:48:48;19.23;;;10.13;;
9924;SDS011;5001;51.674;7.868;2023-04-26T04:51:16;14.70;;;10.13;;
9924;SDS011;5001;51.674;7.868;2023-04-26T04:53:43;18.30;;;11.07;;
9924;SDS011;5001;51.674;7.868;2023-04-26T04:56:10;26.53;;;11.03;;
9924;SDS011;5001;51.674;7.868;2023-04-26T04:58:37;20.53;;;11.20;;
9924;SDS011;5001;51.674;7.868;2023-04-26T05:01:04;22.10;;;11.20;;
9924;SDS011;5001;51.674;7.868;2023-04-26T05:03:43;24.03;;;10.57;;
9924;SDS011;5001;51.674;7.868;2023-04-26T05:06:11;16.80;;;9.17;;
9924;SDS011;5001;51.674;7.868;2023-04-26T05:08:38;23.27;;;12.10;;
9924;SDS011;5001;51.674;7.868;2023-04-26T05:11:07;21.73;;;11.60;;
9924;SDS011;5001;51.674;7.868;2023-04-26T05:13:35;17.37;;;9.07;;
9924;SDS011;5001;51.674;7.868;2023-04-26T05:16:03;15.37;;;9.23;;
9924;SDS011;5001;51.674;7.868;2023-04-26T05:18:30;15.60;;;9.27;;
9924;SDS011;5001;51.674;7.868;2023-04-26T05:21:00;24.53;;;8.83;;
9924;SDS011;5001;51.674;7.868;2023-04-26T05:23:28;18.00;;;9.17;;
9924;SDS011;5001;51.674;7.868;2023-04-26T05:25:55;13.87;;;8.20;;
9924;SDS011;5001;51.674;7.868;2023-04-26T05:28:41;20.40;;;9.03;;
9924;SDS011;5001;51.674;7.868;2023-04-26T05:31:32;16.23;;;8.10;;
9924;SDS011;5001;51.674;7.868;2023-04-26T05:34:06;16.17;;;8.23;;
9924;SDS011;5001;51.674;7.868;2023-04-26T05:36:35;12.97;;;6.93;;
9924;SDS011;5001;51.674;7.868;2023-04-26T05:39:03;11.67;;;6.30;;
9924;SDS011;5001;51.674;7.868;2023-04-26T05:41:33;10.47;;;6.33;;
9924;SDS011;5001;51.674;7.868;2023-04-26T05:44:01;11.17;;;5.93;;
9924;SDS011;5001;51.674;7.868;2023-04-26T05:46:28;14.30;;;6.43;;
9924;SDS011;5001;51.674;7.868;2023-04-26T05:48:55;18.00;;;7.20;;
9924;SDS011;5001;51.674;7.868;2023-04-26T05:51:22;12.43;;;6.27;;
9924;SDS011;5001;51.674;7.868;2023-04-26T05:53:49;12.10;;;7.30;;
9924;SDS011;5001;51.674;7.868;2023-04-26T05:56:17;12.37;;;6.57;;
9924;SDS011;5001;51.674;7.868;2023-04-26T05:58:44;13.73;;;7.15;;
9924;SDS011;5001;51.674;7.868;2023-04-26T06:01:11;16.85;;;6.93;;
9924;SDS011;5001;51.674;7.868;2023-04-26T06:03:40;12.77;;;6.70;;
9924;SDS011;5001;51.674;7.868;2023-04-26T06:06:07;13.63;;;7.25;;
9924;SDS011;5001;51.674;7.868;2023-04-26T06:08:37;13.98;;;6.88;;
9924;SDS011;5001;51.674;7.868;2023-04-26T06:11:04;12.45;;;6.93;;
9924;SDS011;5001;51.674;7.868;2023-04-26T06:13:31;14.05;;;7.25;;
9924;SDS011;5001;51.674;7.868;2023-04-26T06:15:58;10.85;;;6.72;;
9924;SDS011;5001;51.674;7.868;2023-04-26T06:18:25;13.73;;;6.90;;
9924;SDS011;5001;51.674;7.868;2023-04-26T06:20:53;13.48;;;6.95;;
9924;SDS011;5001;51.674;7.868;2023-04-26T06:23:20;15.48;;;7.60;;
9924;SDS011;5001;51.674;7.868;2023-04-26T06:25:47;10.57;;;7.28;;
9924;SDS011;5001;51.674;7.868;2023-04-26T06:28:14;13.77;;;7.50;;
9924;SDS011;5001;51.674;7.868;2023-04-26T06:30:41;16.23;;;7.90;;
9924;SDS011;5001;51.674;7.868;2023-04-26T06:33:08;23.30;;;8.67;;
9924;SDS011;5001;51.674;7.868;2023-04-26T06:35:40;14.43;;;8.20;;
9924;SDS011;5001;51.674;7.868;2023-04-26T06:38:09;12.67;;;8.13;;
9924;SDS011;5001;51.674;7.868;2023-04-26T06:40:38;12.63;;;7.77;;
9924;SDS011;5001;51.674;7.868;2023-04-26T06:43:05;14.70;;;7.43;;
9924;SDS011;5001;51.674;7.868;2023-04-26T06:45:35;16.70;;;7.90;;
9924;SDS011;5001;51.674;7.868;2023-04-26T06:48:02;11.87;;;6.60;;
9924;SDS011;5001;51.674;7.868;2023-04-26T06:50:31;10.03;;;7.53;;
9924;SDS011;5001;51.674;7.868;2023-04-26T06:52:58;14.77;;;7.20;;
9924;SDS011;5001;51.674;7.868;2023-04-26T06:55:25;16.73;;;7.30;;
9924;SDS011;5001;51.674;7.868;2023-04-26T06:57:52;11.93;;;7.10;;
9924;SDS011;5001;51.674;7.868;2023-04-26T07:00:19;12.23;;;7.15;;
9924;SDS011;5001;51.674;7.868;2023-04-26T07:02:47;9.30;;;6.32;;
9924;SDS011;5001;51.674;7.868;2023-04-26T07:05:14;14.13;;;6.95;;
9924;SDS011;5001;51.674;7.868;2023-04-26T07:07:41;14.23;;;6.90;;
9924;SDS011;5001;51.674;7.868;2023-04-26T07:10:08;12.77;;;7.53;;
9924;SDS011;5001;51.674;7.868;2023-04-26T07:12:35;17.45;;;6.85;;
9924;SDS011;5001;51.674;7.868;2023-04-26T07:15:02;9.57;;;6.32;;
9924;SDS011;5001;51.674;7.868;2023-04-26T07:17:32;12.02;;;6.15;;
9924;SDS011;5001;51.674;7.868;2023-04-26T07:19:59;16.27;;;7.28;;
9924;SDS011;5001;51.674;7.868;2023-04-26T07:22:26;12.85;;;6.35;;
9924;SDS011;5001;51.674;7.868;2023-04-26T07:24:53;19.25;;;7.03;;
9924;SDS011;5001;51.674;7.868;2023-04-26T07:27:20;11.57;;;7.15;;
9924;SDS011;5001;51.674;7.868;2023-04-26T07:29:47;10.40;;;6.47;;
9924;SDS011;5001;51.674;7.868;2023-04-26T07:32:14;13.05;;;6.18;;
9924;SDS011;5001;51.674;7.868;2023-04-26T07:34:41;8.63;;;4.85;;
9924;SDS011;5001;51.674;7.868;2023-04-26T07:37:08;9.40;;;5.20;;
9924;SDS011;5001;51.674;7.868;2023-04-26T07:39:35;8.27;;;5.07;;
9924;SDS011;5001;51.674;7.868;2023-04-26T07:42:02;7.35;;;4.35;;
9924;SDS011;5001;51.674;7.868;2023-04-26T07:44:29;7.07;;;3.90;;
9924;SDS011;5001;51.674;7.868;2023-04-26T07:46:56;7.05;;;4.47;;
9924;SDS011;5001;51.674;7.868;2023-04-26T07:49:23;9.60;;;4.15;;
9924;SDS011;5001;51.674;7.868;2023-04-26T07:51:50;9.32;;;5.00;;
9924;SDS011;5001;51.674;7.868;2023-04-26T07:54:17;8.90;;;4.90;;
9924;SDS011;5001;51.674;7.868;2023-04-26T07:56:44;11.52;;;4.40;;
9924;SDS011;5001;51.674;7.868;2023-04-26T07:59:11;10.57;;;4.50;;
9924;SDS011;5001;51.674;7.868;2023-04-26T08:01:38;10.20;;;4.72;;
9924;SDS011;5001;51.674;7.868;2023-04-26T08:04:05;10.02;;;4.05;;
9924;SDS011;5001;51.674;7.868;2023-04-26T08:06:33;12.85;;;4.38;;
9924;SDS011;5001;51.674;7.868;2023-04-26T08:09:01;9.90;;;4.03;;
9924;SDS011;5001;51.674;7.868;2023-04-26T08:11:29;6.53;;;3.72;;
9924;SDS011;5001;51.674;7.868;2023-04-26T08:13:56;7.15;;;3.75;;
9924;SDS011;5001;51.674;7.868;2023-04-26T08:16:24;6.80;;;2.92;;
9924;SDS011;5001;51.674;7.868;2023-04-26T08:18:51;6.80;;;3.00;;
9924;SDS011;5001;51.674;7.868;2023-04-26T08:21:18;6.07;;;3.33;;
9924;SDS011;5001;51.674;7.868;2023-04-26T08:23:45;9.02;;;3.35;;
9924;SDS011;5001;51.674;7.868;2023-04-26T08:26:12;4.72;;;2.10;;
9924;SDS011;5001;51.674;7.868;2023-04-26T08:28:39;6.90;;;2.80;;
9924;SDS011;5001;51.674;7.868;2023-04-26T08:31:06;4.27;;;2.57;;
9924;SDS011;5001;51.674;7.868;2023-04-26T08:33:33;3.88;;;2.13;;
9924;SDS011;5001;51.674;7.868;2023-04-26T08:36:00;4.63;;;2.35;;
9924;SDS011;5001;51.674;7.868;2023-04-26T08:38:27;4.30;;;2.08;;
9924;SDS011;5001;51.674;7.868;2023-04-26T08:40:55;7.50;;;2.58;;
9924;SDS011;5001;51.674;7.868;2023-04-26T08:43:27;7.15;;;2.50;;
9924;SDS011;5001;51.674;7.868;2023-04-26T08:45:56;3.90;;;2.13;;
9924;SDS011;5001;51.674;7.868;2023-04-26T08:48:25;3.85;;;2.10;;
9924;SDS011;5001;51.674;7.868;2023-04-26T08:50:55;4.40;;;1.75;;
9924;SDS011;5001;51.674;7.868;2023-04-26T08:53:22;3.20;;;2.03;;
9924;SDS011;5001;51.674;7.868;2023-04-26T08:55:49;5.93;;;1.90;;
9924;SDS011;5001;51.674;7.868;2023-04-26T08:58:17;6.15;;;1.95;;
9924;SDS011;5001;51.674;7.868;2023-04-26T09:00:45;3.42;;;2.30;;
9924;SDS011;5001;51.674;7.868;2023-04-26T09:03:12;5.68;;;2.42;;
9924;SDS011;5001;51.674;7.868;2023-04-26T09:05:42;4.95;;;2.70;;
9924;SDS011;5001;51.674;7.868;2023-04-26T09:08:20;10.00;;;3.60;;
9924;SDS011;5001;51.674;7.868;2023-04-26T09:10:47;5.85;;;2.40;;
9924;SDS011;5001;51.674;7.868;2023-04-26T09:13:14;8.32;;;2.42;;
9924;SDS011;5001;51.674;7.868;2023-04-26T09:15:41;5.40;;;1.80;;
9924;SDS011;5001;51.674;7.868;2023-04-26T09:18:15;4.85;;;2.35;;
9924;SDS011;5001;51.674;7.868;2023-04-26T09:20:44;7.40;;;2.28;;
9924;SDS011;5001;51.674;7.868;2023-04-26T09:23:11;5.10;;;2.20;;
9924;SDS011;5001;51.674;7.868;2023-04-26T09:25:38;5.45;;;1.98;;
9924;SDS011;5001;51.674;7.868;2023-04-26T09:28:17;6.30;;;2.27;;
9924;SDS011;5001;51.674;7.868;2023-04-26T09:30:47;5.87;;;2.60;;
9924;SDS011;5001;51.674;7.868;2023-04-26T09:33:14;7.57;;;3.40;;
9924;SDS011;5001;51.674;7.868;2023-04-26T09:35:42;5.80;;;3.30;;
9924;SDS011;5001;51.674;7.868;2023-04-26T09:38:10;11.53;;;4.33;;
9924;SDS011;5001;51.674;7.868;2023-04-26T09:40:44;7.40;;;3.03;;
9924;SDS011;5001;51.674;7.868;2023-04-26T09:45:49;7.93;;;3.13;;
9924;SDS011;5001;51.674;7.868;2023-04-26T09:48:29;4.53;;;2.77;;
9924;SDS011;5001;51.674;7.868;2023-04-26T09:53:35;9.23;;;3.30;;
9924;SDS011;5001;51.674;7.868;2023-04-26T09:58:37;12.07;;;7.00;;
9924;SDS011;5001;51.674;7.868;2023-04-26T10:01:24;4.63;;;2.87;;
9924;SDS011;5001;51.674;7.868;2023-04-26T10:03:52;6.50;;;2.83;;
9924;SDS011;5001;51.674;7.868;2023-04-26T10:06:21;6.60;;;3.40;;
9924;SDS011;5001;51.674;7.868;2023-04-26T10:08:48;4.90;;;2.20;;
9924;SDS011;5001;51.674;7.868;2023-04-26T10:11:15;7.87;;;3.20;;
9924;SDS011;5001;51.674;7.868;2023-04-26T10:13:43;8.23;;;2.97;;
9924;SDS011;5001;51.674;7.868;2023-04-26T10:16:10;5.53;;;2.03;;
9924;SDS011;5001;51.674;7.868;2023-04-26T10:18:37;19.55;;;6.65;;
9924;SDS011;5001;51.674;7.868;2023-04-26T10:21:15;3.70;;;1.90;;
9924;SDS011;5001;51.674;7.868;2023-04-26T10:23:50;5.43;;;2.10;;
9924;SDS011;5001;51.674;7.868;2023-04-26T10:29:20;5.20;;;2.53;;
9924;SDS011;5001;51.674;7.868;2023-04-26T10:34:27;7.25;;;2.20;;
9924;SDS011;5001;51.674;7.868;2023-04-26T10:37:08;3.55;;;1.73;;
9924;SDS011;5001;51.674;7.868;2023-04-26T10:39:44;7.75;;;3.10;;
9924;SDS011;5001;51.674;7.868;2023-04-26T10:44:56;4.82;;;1.90;;
9924;SDS011;5001;51.674;7.868;2023-04-26T10:47:43;4.13;;;1.60;;
9924;SDS011;5001;51.674;7.868;2023-04-26T10:50:10;3.28;;;1.80;;
9924;SDS011;5001;51.674;7.868;2023-04-26T10:55:39;4.20;;;2.00;;
9924;SDS011;5001;51.674;7.868;2023-04-26T10:58:41;5.88;;;2.28;;
9924;SDS011;5001;51.674;7.868;2023-04-26T11:01:17;6.35;;;1.90;;
9924;SDS011;5001;51.674;7.868;2023-04-26T11:06:23;5.65;;;2.40;;
9924;SDS011;5001;51.674;7.868;2023-04-26T11:08:52;4.82;;;2.17;;
9924;SDS011;5001;51.674;7.868;2023-04-26T11:11:24;3.63;;;2.10;;
9924;SDS011;5001;51.674;7.868;2023-04-26T11:13:52;5.67;;;2.30;;
9924;SDS011;5001;51.674;7.868;2023-04-26T11:16:19;3.67;;;2.10;;
9924;SDS011;5001;51.674;7.868;2023-04-26T11:18:46;3.63;;;2.20;;
9924;SDS011;5001;51.674;7.868;2023-04-26T11:21:13;6.90;;;2.57;;
9924;SDS011;5001;51.674;7.868;2023-04-26T11:23:51;5.77;;;2.30;;
9924;SDS011;5001;51.674;7.868;2023-04-26T11:26:19;10.07;;;2.83;;
9924;SDS011;5001;51.674;7.868;2023-04-26T11:28:46;4.63;;;1.90;;
9924;SDS011;5001;51.674;7.868;2023-04-26T11:31:17;5.63;;;2.53;;
9924;SDS011;5001;51.674;7.868;2023-04-26T11:33:44;4.60;;;2.60;;
9924;SDS011;5001;51.674;7.868;2023-04-26T11:36:15;6.00;;;3.30;;
9924;SDS011;5001;51.674;7.868;2023-04-26T11:38:45;8.80;;;4.30;;
9924;SDS011;5001;51.674;7.868;2023-04-26T11:41:12;6.07;;;2.33;;
9924;SDS011;5001;51.674;7.868;2023-04-26T11:43:39;4.60;;;2.77;;
9924;SDS011;5001;51.674;7.868;2023-04-26T11:46:07;5.35;;;3.08;;
9924;SDS011;5001;51.674;7.868;2023-04-26T11:48:36;9.63;;;3.17;;
9924;SDS011;5001;51.674;7.868;2023-04-26T11:51:05;3.92;;;2.50;;
9924;SDS011;5001;51.674;7.868;2023-04-26T11:53:34;5.38;;;2.30;;
9924;SDS011;5001;51.674;7.868;2023-04-26T11:56:13;7.72;;;2.60;;
9924;SDS011;5001;51.674;7.868;2023-04-26T11:58:45;4.18;;;2.42;;
9924;SDS011;5001;51.674;7.868;2023-04-26T12:01:23;5.85;;;2.35;;
9924;SDS011;5001;51.674;7.868;2023-04-26T12:03:51;8.02;;;3.33;;
9924;SDS011;5001;51.674;7.868;2023-04-26T12:06:30;12.85;;;4.68;;
9924;SDS011;5001;51.674;7.868;2023-04-26T12:09:08;8.63;;;2.83;;
9924;SDS011;5001;51.674;7.868;2023-04-26T12:11:36;9.75;;;2.70;;
9924;SDS011;5001;51.674;7.868;2023-04-26T12:14:04;4.90;;;2.70;;
9924;SDS011;5001;51.674;7.868;2023-04-26T12:16:36;7.97;;;3.10;;
9924;SDS011;5001;51.674;7.868;2023-04-26T12:19:04;7.20;;;2.92;;
9924;SDS011;5001;51.674;7.868;2023-04-26T12:21:40;7.28;;;2.50;;
9924;SDS011;5001;51.674;7.868;2023-04-26T12:24:24;4.85;;;2.30;;
9924;SDS011;5001;51.674;7.868;2023-04-26T12:26:55;4.28;;;1.98;;
9924;SDS011;5001;51.674;7.868;2023-04-26T12:29:22;4.43;;;2.28;;
9924;SDS011;5001;51.674;7.868;2023-04-26T12:31:49;6.55;;;2.50;;
9924;SDS011;5001;51.674;7.868;2023-04-26T12:34:16;5.10;;;2.22;;
9924;SDS011;5001;51.674;7.868;2023-04-26T12:36:43;3.57;;;1.90;;
9924;SDS011;5001;51.674;7.868;2023-04-26T12:39:11;4.47;;;2.03;;
9924;SDS011;5001;51.674;7.868;2023-04-26T12:41:39;4.68;;;2.20;;
9924;SDS011;5001;51.674;7.868;2023-04-26T12:44:07;5.77;;;2.53;;
9924;SDS011;5001;51.674;7.868;2023-04-26T12:46:35;5.10;;;2.20;;
9924;SDS011;5001;51.674;7.868;2023-04-26T12:49:02;5.20;;;2.53;;
9924;SDS011;5001;51.674;7.868;2023-04-26T12:51:29;5.03;;;2.50;;
9924;SDS011;5001;51.674;7.868;2023-04-26T12:53:59;4.53;;;2.20;;
9924;SDS011;5001;51.674;7.868;2023-04-26T12:56:27;4.85;;;2.40;;
9924;SDS011;5001;51.674;7.868;2023-04-26T12:58:54;4.00;;;2.22;;
9924;SDS011;5001;51.674;7.868;2023-04-26T13:01:22;6.90;;;2.50;;
9924;SDS011;5001;51.674;7.868;2023-04-26T13:03:49;8.70;;;2.92;;
9924;SDS011;5001;51.674;7.868;2023-04-26T13:06:16;5.18;;;2.60;;
9924;SDS011;5001;51.674;7.868;2023-04-26T13:08:43;10.80;;;6.30;;
9924;SDS011;5001;51.674;7.868;2023-04-26T13:11:10;6.45;;;3.47;;
9924;SDS011;5001;51.674;7.868;2023-04-26T13:13:37;8.38;;;3.42;;
9924;SDS011;5001;51.674;7.868;2023-04-26T13:16:09;5.43;;;2.75;;
9924;SDS011;5001;51.674;7.868;2023-04-26T13:18:38;17.77;;;7.80;;
9924;SDS011;5001;51.674;7.868;2023-04-26T13:21:06;7.25;;;3.88;;
9924;SDS011;5001;51.674;7.868;2023-04-26T13:23:33;13.13;;;6.80;;
9924;SDS011;5001;51.674;7.868;2023-04-26T13:26:00;6.60;;;2.92;;
9924;SDS011;5001;51.674;7.868;2023-04-26T13:28:27;6.78;;;2.90;;
9924;SDS011;5001;51.674;7.868;2023-04-26T13:30:54;5.82;;;3.05;;
9924;SDS011;5001;51.674;7.868;2023-04-26T13:33:21;8.07;;;2.58;;
9924;SDS011;5001;51.674;7.868;2023-04-26T13:35:48;4.35;;;2.30;;
9924;SDS011;5001;51.674;7.868;2023-04-26T13:38:15;4.13;;;2.13;;
9924;SDS011;5001;51.674;7.868;2023-04-26T13:40:43;5.47;;;2.58;;
9924;SDS011;5001;51.674;7.868;2023-04-26T13:43:10;6.47;;;2.45;;
9924;SDS011;5001;51.674;7.868;2023-04-26T13:45:37;7.35;;;2.80;;
9924;SDS011;5001;51.674;7.868;2023-04-26T13:48:05;7.80;;;2.58;;
9924;SDS011;5001;51.674;7.868;2023-04-26T13:50:32;6.32;;;2.47;;
9924;SDS011;5001;51.674;7.868;2023-04-26T13:53:01;4.10;;;2.50;;
9924;SDS011;5001;51.674;7.868;2023-04-26T13:55:29;5.47;;;2.40;;
9924;SDS011;5001;51.674;7.868;2023-04-26T13:57:56;6.22;;;2.20;;
9924;SDS011;5001;51.674;7.868;2023-04-26T14:00:23;6.72;;;2.58;;
9924;SDS011;5001;51.674;7.868;2023-04-26T14:02:50;3.83;;;2.38;;
9924;SDS011;5001;51.674;7.868;2023-04-26T14:05:17;5.75;;;2.20;;
9924;SDS011;5001;51.674;7.868;2023-04-26T14:07:44;6.35;;;2.60;;
9924;SDS011;5001;51.674;7.868;2023-04-26T14:10:11;3.92;;;2.50;;
9924;SDS011;5001;51.674;7.868;2023-04-26T14:12:39;5.18;;;2.38;;
9924;SDS011;5001;51.674;7.868;2023-04-26T14:15:06;6.65;;;2.28;;
9924;SDS011;5001;51.674;7.868;2023-04-26T14:17:34;5.00;;;2.58;;
9924;SDS011;5001;51.674;7.868;2023-04-26T14:20:01;6.60;;;2.55;;
9924;SDS011;5001;51.674;7.868;2023-04-26T14:22:28;3.33;;;2.20;;
9924;SDS011;5001;51.674;7.868;2023-04-26T14:24:55;5.57;;;2.50;;
9924;SDS011;5001;51.674;7.868;2023-04-26T14:27:22;5.30;;;2.78;;
9924;SDS011;5001;51.674;7.868;2023-04-26T14:29:49;5.65;;;3.35;;
9924;SDS011;5001;51.674;7.868;2023-04-26T14:32:16;4.07;;;2.10;;
9924;SDS011;5001;51.674;7.868;2023-04-26T14:34:43;7.88;;;3.00;;
9924;SDS011;5001;51.674;7.868;2023-04-26T14:37:10;3.70;;;2.60;;
9924;SDS011;5001;51.674;7.868;2023-04-26T14:39:37;3.47;;;2.40;;
9924;SDS011;5001;51.674;7.868;2023-04-26T14:42:04;5.43;;;2.90;;
9924;SDS011;5001;51.674;7.868;2023-04-26T14:44:32;4.83;;;2.90;;
9924;SDS011;5001;51.674;7.868;2023-04-26T14:46:59;5.63;;;3.00;;
9924;SDS011;5001;51.674;7.868;2023-04-26T14:49:26;4.63;;;3.00;;
9924;SDS011;5001;51.674;7.868;2023-04-26T14:51:53;6.53;;;3.43;;
9924;SDS011;5001;51.674;7.868;2023-04-26T14:54:20;3.63;;;2.73;;
9924;SDS011;5001;51.674;7.868;2023-04-26T14:56:47;6.63;;;3.97;;
9924;SDS011;5001;51.674;7.868;2023-04-26T14:59:15;6.17;;;3.20;;
9924;SDS011;5001;51.674;7.868;2023-04-26T15:01:42;6.33;;;4.33;;
9924;SDS011;5001;51.674;7.868;2023-04-26T15:04:09;11.77;;;6.33;;
9924;SDS011;5001;51.674;7.868;2023-04-26T15:06:37;10.27;;;7.40;;
9924;SDS011;5001;51.674;7.868;2023-04-26T15:09:04;4.57;;;3.27;;
9924;SDS011;5001;51.674;7.868;2023-04-26T15:11:34;5.38;;;3.08;;
9924;SDS011;5001;51.674;7.868;2023-04-26T15:14:01;9.33;;;5.90;;
9924;SDS011;5001;51.674;7.868;2023-04-26T15:16:28;7.15;;;5.10;;
9924;SDS011;5001;51.674;7.868;2023-04-26T15:18:55;6.20;;;3.20;;
9924;SDS011;5001;51.674;7.868;2023-04-26T15:21:22;5.13;;;3.85;;
9924;SDS011;5001;51.674;7.868;2023-04-26T15:23:49;31.85;;;19.70;;
9924;SDS011;5001;51.674;7.868;2023-04-26T15:26:16;4.70;;;3.85;;
9924;SDS011;5001;51.674;7.868;2023-04-26T15:28:43;8.47;;;6.13;;
9924;SDS011;5001;51.674;7.868;2023-04-26T15:31:10;7.27;;;5.37;;
9924;SDS011;5001;51.674;7.868;2023-04-26T15:33:37;24.13;;;16.13;;
9924;SDS011;5001;51.674;7.868;2023-04-26T15:36:04;8.57;;;4.63;;